Time;durP1;ratioP1;P1;durP2;ratioP2;P2;SDS_P1;SDS_P2;PMS_P1;PMS_P2;Temp;Humidity;BMP_temperature;BMP_pressure;BME280_temperature;BME280_humidity;BME280_pressure;Samples;Min_cycle;Max_cycle;Signal;HPM_P1;HPM_P2
2020/12/06 00:02:15;;;;;;;22.10;14.80;;;;;;;8.10;100.00;96875.09;4974157;28;20240;-93
2020/12/06 00:04:42;;;;;;;23.67;15.67;;;;;;;8.14;100.00;96870.44;4975275;28;20208;-93
2020/12/06 00:07:09;;;;;;;20.13;13.47;;;;;;;8.01;100.00;96871.50;4974731;28;20611;-92
2020/12/06 00:09:37;;;;;;;16.63;13.90;;;;;;;8.05;100.00;96875.50;4975052;28;20322;-93
2020/12/06 00:12:04;;;;;;;17.43;12.67;;;;;;;8.04;100.00;96883.50;4973266;28;20765;-93
2020/12/06 00:14:32;;;;;;;21.57;13.83;;;;;;;8.05;100.00;96882.53;4973449;28;20212;-93
2020/12/06 00:16:59;;;;;;;19.70;13.17;;;;;;;8.09;100.00;96884.75;4973172;28;20645;-93
2020/12/06 00:19:26;;;;;;;17.53;14.37;;;;;;;8.04;100.00;96878.25;4972849;28;20193;-93
2020/12/06 00:21:52;;;;;;;24.20;15.03;;;;;;;8.09;100.00;96889.16;4972924;28;20232;-93
2020/12/06 00:24:21;;;;;;;21.10;14.77;;;;;;;8.03;100.00;96884.44;4973065;28;20754;-94
2020/12/06 00:26:49;;;;;;;18.03;14.40;;;;;;;8.03;100.00;96887.06;4972742;28;20200;-93
2020/12/06 00:29:15;;;;;;;22.90;15.50;;;;;;;8.04;100.00;96883.50;4971484;28;20251;-92
2020/12/06 00:31:42;;;;;;;22.13;14.40;;;;;;;8.05;100.00;96877.28;5282741;22;20290;-93
2020/12/06 00:34:09;;;;;;;22.57;14.00;;;;;;;8.01;100.00;96878.50;5074458;28;20262;-93
2020/12/06 00:36:36;;;;;;;17.77;13.17;;;;;;;8.00;100.00;96869.84;5073852;28;20298;-93
2020/12/06 00:39:03;;;;;;;20.63;16.03;;;;;;;8.02;100.00;96880.16;5074210;28;20263;-93
2020/12/06 00:41:30;;;;;;;22.30;14.03;;;;;;;7.98;100.00;96869.13;5073845;28;20262;-93
2020/12/06 00:43:58;;;;;;;19.17;12.93;;;;;;;7.96;100.00;96870.19;5074001;28;20201;-93
2020/12/06 00:46:25;;;;;;;22.37;15.57;;;;;;;7.95;100.00;96873.78;5074163;28;20197;-93
2020/12/06 00:48:52;;;;;;;22.10;13.87;;;;;;;7.94;100.00;96861.66;5074100;28;20199;-93
2020/12/06 00:51:19;;;;;;;18.70;13.93;;;;;;;7.99;100.00;96864.72;5073838;28;20193;-93
2020/12/06 00:53:45;;;;;;;19.10;13.67;;;;;;;7.94;100.00;96859.88;5072793;28;20758;-93
2020/12/06 00:56:19;;;;;;;23.03;14.60;;;;;;;7.92;100.00;96855.72;5074026;28;20281;-93
2020/12/06 00:58:46;;;;;;;21.20;13.83;;;;;;;7.91;100.00;96864.53;5073828;28;20367;-93
2020/12/06 01:01:15;;;;;;;22.60;14.93;;;;;;;7.95;100.00;96866.75;5073609;28;20193;-93
2020/12/06 01:03:42;;;;;;;22.03;15.07;;;;;;;7.98;100.00;96857.81;5073127;28;20223;-93
2020/12/06 01:06:09;;;;;;;25.53;14.90;;;;;;;7.99;100.00;96854.25;5073723;28;20280;-93
2020/12/06 01:08:36;;;;;;;19.87;15.10;;;;;;;7.92;100.00;96855.72;5073797;28;20635;-93
2020/12/06 01:11:02;;;;;;;20.70;17.33;;;;;;;7.89;100.00;96846.31;5073423;28;20578;-93
2020/12/06 01:13:29;;;;;;;21.27;14.83;;;;;;;7.90;100.00;96847.16;5073147;28;20224;-93
2020/12/06 01:15:56;;;;;;;20.30;14.70;;;;;;;7.82;100.00;96842.56;5073674;28;20740;-94
2020/12/06 01:18:24;;;;;;;21.23;15.40;;;;;;;7.83;100.00;96846.84;5073726;28;20630;-93
2020/12/06 01:20:51;;;;;;;20.87;16.13;;;;;;;7.82;100.00;96839.94;5073312;28;20197;-93
2020/12/06 01:23:18;;;;;;;16.83;13.50;;;;;;;7.77;100.00;96848.19;5073424;28;20197;-93
2020/12/06 01:25:44;;;;;;;16.50;14.57;;;;;;;7.83;100.00;96845.06;5074070;28;20185;-93
2020/12/06 01:28:11;;;;;;;22.37;14.80;;;;;;;7.86;100.00;96847.44;5073496;28;20200;-93
2020/12/06 01:30:38;;;;;;;19.43;15.23;;;;;;;7.89;100.00;96851.56;5073425;28;20290;-94
2020/12/06 01:33:06;;;;;;;18.83;14.13;;;;;;;7.83;100.00;96844.22;5073509;28;20247;-93
2020/12/06 01:35:33;;;;;;;19.97;14.43;;;;;;;7.82;100.00;96846.00;5073048;28;20258;-93
2020/12/06 01:38:00;;;;;;;24.07;16.07;;;;;;;7.85;100.00;96845.75;5073050;28;20208;-93
2020/12/06 01:40:27;;;;;;;18.53;14.40;;;;;;;7.82;100.00;96851.22;5072779;28;20193;-93
2020/12/06 01:42:54;;;;;;;24.20;14.97;;;;;;;7.82;100.00;96843.38;5073262;28;20226;-93
2020/12/06 01:45:21;;;;;;;21.17;14.73;;;;;;;7.85;100.00;96845.75;5073351;28;20189;-93
2020/12/06 01:47:48;;;;;;;19.53;15.23;;;;;;;7.78;100.00;96844.59;5073000;28;20285;-93
2020/12/06 01:50:15;;;;;;;18.27;14.53;;;;;;;7.77;100.00;96842.94;5073256;28;20236;-93
2020/12/06 01:52:43;;;;;;;24.00;16.13;;;;;;;7.81;100.00;96846.13;5073015;28;20213;-93
2020/12/06 01:55:13;;;;;;;28.20;16.17;;;;;;;7.83;100.00;96842.44;5073269;28;20283;-93
2020/12/06 01:57:40;;;;;;;20.80;14.87;;;;;;;7.73;100.00;96840.72;5073320;28;20197;-93
2020/12/06 02:00:08;;;;;;;24.83;15.67;;;;;;;7.77;100.00;96842.94;5072959;28;20243;-93
2020/12/06 02:02:35;;;;;;;21.27;14.90;;;;;;;7.71;100.00;96842.63;5072831;28;20254;-93
2020/12/06 02:05:03;;;;;;;22.10;14.13;;;;;;;7.70;100.00;96836.56;5073251;28;20239;-92
2020/12/06 02:07:32;;;;;;;23.13;15.03;;;;;;;7.73;100.00;96836.31;5072817;28;20193;-93
2020/12/06 02:10:00;;;;;;;20.00;14.70;;;;;;;7.76;100.00;96833.44;5073002;28;20205;-92
2020/12/06 02:12:27;;;;;;;23.07;15.23;;;;;;;7.77;100.00;96832.47;5072785;28;20274;-92
2020/12/06 02:14:54;;;;;;;21.80;13.97;;;;;;;7.74;100.00;96831.91;5072896;28;20197;-92
2020/12/06 02:17:21;;;;;;;18.37;14.67;;;;;;;7.68;100.00;96828.00;5072629;28;20196;-92
2020/12/06 02:19:48;;;;;;;19.83;15.67;;;;;;;7.68;100.00;96827.16;5072656;28;20193;-91
2020/12/06 02:22:16;;;;;;;23.77;15.70;;;;;;;7.70;100.00;96823.47;5072874;28;20207;-92
2020/12/06 02:24:43;;;;;;;18.53;15.73;;;;;;;7.73;100.00;96825.84;5073019;28;20197;-92
2020/12/06 02:27:10;;;;;;;18.87;14.43;;;;;;;7.74;100.00;96826.66;5072781;28;20251;-92
2020/12/06 02:29:36;;;;;;;24.37;15.53;;;;;;;7.71;100.00;96827.75;5073008;28;20282;-92
2020/12/06 02:32:03;;;;;;;19.30;15.00;;;;;;;7.67;100.00;96826.34;5072445;28;20279;-92
2020/12/06 02:34:30;;;;;;;22.53;14.97;;;;;;;7.66;100.00;96821.25;5072941;28;20233;-93
2020/12/06 02:36:57;;;;;;;21.87;15.03;;;;;;;7.69;100.00;96818.34;5072853;28;20649;-92
2020/12/06 02:39:25;;;;;;;20.30;15.23;;;;;;;7.69;100.00;96818.34;5072424;28;20266;-93
2020/12/06 02:41:51;;;;;;;24.70;17.33;;;;;;;7.64;100.00;96816.13;5072655;28;20193;-92
2020/12/06 02:44:18;;;;;;;19.03;15.37;;;;;;;7.64;100.00;96816.13;5072694;28;20193;-93
2020/12/06 02:46:45;;;;;;;20.43;14.97;;;;;;;7.56;100.00;96813.34;5072499;28;20201;-92
2020/12/06 02:49:12;;;;;;;22.40;15.87;;;;;;;7.60;100.00;96823.41;5072505;28;20204;-92
2020/12/06 02:51:39;;;;;;;17.93;14.03;;;;;;;7.67;100.00;96820.28;5072729;28;20249;-92
2020/12/06 02:54:06;;;;;;;19.03;14.73;;;;;;;7.61;100.00;96816.38;5076585;28;20258;-91
2020/12/06 02:56:34;;;;;;;19.17;13.90;;;;;;;7.63;100.00;96810.06;5076355;28;20707;-92
2020/12/06 02:59:01;;;;;;;19.03;14.10;;;;;;;7.67;100.00;96815.06;5076513;28;20189;-92
2020/12/06 03:01:29;;;;;;;21.57;16.97;;;;;;;7.58;100.00;96814.84;5075964;28;20685;-92
2020/12/06 03:03:56;;;;;;;23.37;17.60;;;;;;;7.55;100.00;96815.13;5076353;28;20729;-92
2020/12/06 03:06:23;;;;;;;25.30;17.03;;;;;;;7.60;100.00;96818.16;5076222;28;20224;-92
2020/12/06 03:08:49;;;;;;;27.77;16.97;;;;;;;7.63;100.00;96811.88;5076141;28;20658;-93
2020/12/06 03:11:16;;;;;;;20.50;14.63;;;;;;;7.61;100.00;96814.59;5075914;28;20193;-92
2020/12/06 03:13:44;;;;;;;18.20;14.93;;;;;;;7.61;100.00;96819.00;5075688;28;20308;-93
2020/12/06 03:16:11;;;;;;;29.97;22.83;;;;;;;7.58;100.00;96817.47;5075668;28;20726;-92
2020/12/06 03:18:38;;;;;;;24.53;16.53;;;;;;;7.62;100.00;96818.06;5075736;28;20236;-92
2020/12/06 03:21:05;;;;;;;22.90;17.20;;;;;;;7.62;100.00;96823.28;5075741;28;20240;-92
2020/12/06 03:23:31;;;;;;;19.97;17.53;;;;;;;7.63;100.00;96823.16;5075820;28;20242;-92
2020/12/06 03:25:58;;;;;;;20.33;14.70;;;;;;;7.58;100.00;96819.25;5075990;28;20879;-92
2020/12/06 03:28:25;;;;;;;24.73;17.07;;;;;;;7.58;100.00;96821.88;5075770;28;20201;-93
2020/12/06 03:30:53;;;;;;;21.30;16.00;;;;;;;7.56;100.00;96829.84;5075449;28;20275;-92
2020/12/06 03:33:20;;;;;;;24.73;16.00;;;;;;;7.61;100.00;96816.38;5075794;28;20240;-93
2020/12/06 03:35:46;;;;;;;22.27;15.23;;;;;;;7.54;100.00;96821.28;5075614;28;20658;-93
2020/12/06 03:38:13;;;;;;;19.33;13.83;;;;;;;7.60;100.00;96814.72;5075725;28;20229;-93
2020/12/06 03:40:40;;;;;;;17.67;15.13;;;;;;;7.63;100.00;96824.94;5075274;28;20197;-93
2020/12/06 03:43:07;;;;;;;23.30;15.40;;;;;;;7.50;100.00;96819.88;5075699;28;20623;-93
2020/12/06 03:45:34;;;;;;;19.77;13.97;;;;;;;7.56;100.00;96823.78;5075847;28;20205;-92
2020/12/06 03:48:02;;;;;;;21.53;15.07;;;;;;;7.55;100.00;96815.13;5075155;28;20193;-92
2020/12/06 03:50:28;;;;;;;21.53;16.13;;;;;;;7.50;100.00;96821.66;5075092;28;20233;-92
2020/12/06 03:52:55;;;;;;;24.50;15.87;;;;;;;7.55;100.00;96819.50;5075256;28;20307;-93
2020/12/06 03:55:22;;;;;;;27.47;15.37;;;;;;;7.55;100.00;96817.75;5075396;28;20242;-92
2020/12/06 03:57:49;;;;;;;17.53;14.57;;;;;;;7.55;100.00;96816.88;5075515;28;20205;-92
2020/12/06 04:00:21;;;;;;;19.90;14.77;;;;;;;7.58;100.00;96822.69;5075521;28;20681;-92
2020/12/06 04:02:51;;;;;;;21.37;13.87;;;;;;;7.54;100.00;96821.28;5074910;28;20178;-93
2020/12/06 04:05:20;;;;;;;18.00;14.87;;;;;;;7.50;100.00;96825.13;5075066;28;20575;-92
2020/12/06 04:07:49;;;;;;;20.50;15.73;;;;;;;7.52;100.00;96825.84;5074863;28;20193;-92
2020/12/06 04:10:16;;;;;;;19.93;14.90;;;;;;;7.43;100.00;96833.59;5074692;28;20193;-93
2020/12/06 04:12:43;;;;;;;20.63;16.60;;;;;;;7.45;100.00;96823.81;5074571;28;20274;-91
2020/12/06 04:15:10;;;;;;;23.03;17.23;;;;;;;7.44;100.00;96830.00;5074576;28;20197;-92
2020/12/06 04:17:37;;;;;;;25.87;17.53;;;;;;;7.53;100.00;96831.88;5074764;28;20250;-92
2020/12/06 04:20:04;;;;;;;22.07;16.17;;;;;;;7.51;100.00;96837.22;5074666;28;20283;-92
2020/12/06 04:22:32;;;;;;;28.83;20.00;;;;;;;7.48;100.00;96836.66;5074784;28;20636;-89
2020/12/06 04:24:59;;;;;;;30.97;21.77;;;;;;;7.48;100.00;96840.13;5074437;28;20262;-92
2020/12/06 04:27:26;;;;;;;26.03;19.60;;;;;;;7.49;100.00;96833.09;5074820;28;20661;-93
2020/12/06 04:29:53;;;;;;;27.47;20.90;;;;;;;7.51;100.00;96841.63;5074637;28;20197;-92
2020/12/06 04:32:20;;;;;;;24.77;19.37;;;;;;;7.50;100.00;96839.97;5074264;28;20236;-93
2020/12/06 04:34:46;;;;;;;22.60;16.10;;;;;;;7.44;100.00;96832.63;5074173;28;20204;-91
2020/12/06 04:37:14;;;;;;;20.23;16.60;;;;;;;7.52;100.00;96843.31;5074247;28;20236;-92
2020/12/06 04:39:41;;;;;;;21.60;15.17;;;;;;;7.45;100.00;96837.75;5074500;28;20274;-91
2020/12/06 04:42:09;;;;;;;20.93;14.67;;;;;;;7.43;100.00;96838.81;5074288;28;20618;-91
2020/12/06 04:44:36;;;;;;;21.20;15.20;;;;;;;7.43;100.00;96847.50;5073961;28;20198;-91
2020/12/06 04:47:04;;;;;;;18.50;14.87;;;;;;;7.49;100.00;96848.78;5074166;28;20251;-91
2020/12/06 04:49:44;;;;;;;21.53;17.20;;;;;;;7.50;100.00;96855.69;5073756;28;20250;-91
2020/12/06 04:52:15;;;;;;;21.40;16.30;;;;;;;7.48;100.00;96850.59;5073840;28;20215;-92
2020/12/06 04:54:44;;;;;;;22.17;18.33;;;;;;;7.43;100.00;96849.28;5073835;28;20178;-91
2020/12/06 04:57:12;;;;;;;21.20;16.73;;;;;;;7.47;100.00;96845.47;5073912;28;20236;-91
2020/12/06 04:59:42;;;;;;;23.73;17.13;;;;;;;7.43;100.00;96850.13;5074347;28;20201;-91
2020/12/06 05:02:16;;;;;;;18.80;15.50;;;;;;;7.47;100.00;96861.16;5073782;28;20219;-91
2020/12/06 05:04:48;;;;;;;23.90;16.60;;;;;;;7.40;100.00;96850.34;5074045;28;20208;-91
2020/12/06 05:07:18;;;;;;;21.17;16.27;;;;;;;7.39;100.00;96853.94;5073629;28;20244;-91
2020/12/06 05:09:49;;;;;;;25.47;16.90;;;;;;;7.34;100.00;96853.47;5073899;28;20203;-90
2020/12/06 05:12:16;;;;;;;26.97;16.03;;;;;;;7.34;100.00;96856.94;5073477;28;20212;-91
2020/12/06 05:14:43;;;;;;;20.97;14.70;;;;;;;7.33;100.00;96865.72;5073136;28;20237;-91
2020/12/06 05:17:10;;;;;;;19.77;15.87;;;;;;;7.37;100.00;96867.13;5073298;28;20288;-91
2020/12/06 05:19:37;;;;;;;21.20;14.60;;;;;;;7.32;100.00;96871.06;5073369;28;20287;-90
2020/12/06 05:22:04;;;;;;;21.27;15.20;;;;;;;7.35;100.00;96869.03;5073198;28;20220;-90
2020/12/06 05:24:31;;;;;;;44.97;26.63;;;;;;;7.26;100.00;96871.56;5073752;28;20189;-91
2020/12/06 05:26:59;;;;;;;29.40;21.23;;;;;;;7.31;100.00;96870.25;5073338;28;20204;-91
2020/12/06 05:29:27;;;;;;;25.63;21.87;;;;;;;7.30;100.00;96865.13;5073783;28;20247;-92
2020/12/06 05:31:56;;;;;;;27.93;20.93;;;;;;;7.35;100.00;96868.22;5073215;28;20260;-92
2020/12/06 05:34:23;;;;;;;38.40;23.40;;;;;;;7.31;100.00;96872.03;5073595;28;20638;-92
2020/12/06 05:36:50;;;;;;;35.93;21.60;;;;;;;7.36;100.00;96868.09;5073492;28;20197;-92
2020/12/06 05:42:21;;;;;;;24.00;18.50;;;;;;;7.32;100.00;96874.53;5073439;28;20287;-92
2020/12/06 05:44:55;;;;;;;25.03;18.37;;;;;;;7.31;100.00;96878.09;5073367;28;20197;-88
2020/12/06 05:47:22;;;;;;;20.60;16.73;;;;;;;7.30;100.00;96879.03;5073671;28;20181;-93
2020/12/06 05:49:49;;;;;;;21.00;15.53;;;;;;;7.39;100.00;96878.28;5073089;28;20201;-92
2020/12/06 05:52:18;;;;;;;20.43;15.77;;;;;;;7.34;100.00;96877.84;5072921;28;20263;-93
2020/12/06 05:54:45;;;;;;;20.37;16.17;;;;;;;7.30;100.00;96880.81;5073028;28;20197;-92
2020/12/06 05:57:13;;;;;;;19.77;14.00;;;;;;;7.22;100.00;96888.47;5073012;28;20220;-91
2020/12/06 05:59:41;;;;;;;22.60;15.97;;;;;;;7.26;100.00;96889.88;5073202;28;20197;-91
2020/12/06 06:02:08;;;;;;;21.30;15.70;;;;;;;7.36;100.00;96882.94;5073120;28;20255;-92
2020/12/06 06:04:39;;;;;;;23.30;17.43;;;;;;;7.32;100.00;96895.44;5073321;28;20236;-90
2020/12/06 06:07:07;;;;;;;22.57;15.20;;;;;;;7.24;100.00;96895.22;5072895;28;20668;-90
2020/12/06 06:09:43;;;;;;;22.80;15.30;;;;;;;7.36;100.00;96901.25;5073085;28;20197;-90
2020/12/06 06:12:28;;;;;;;21.70;15.27;;;;;;;7.33;100.00;96897.09;5073176;28;20603;-91
2020/12/06 06:14:59;;;;;;;23.03;16.07;;;;;;;7.31;100.00;96893.78;5073045;28;20207;-92
2020/12/06 06:17:27;;;;;;;21.87;13.57;;;;;;;7.25;100.00;96898.66;5072779;28;20188;-92
2020/12/06 06:19:54;;;;;;;23.93;16.07;;;;;;;7.28;100.00;96901.88;5072975;28;20204;-91
2020/12/06 06:22:27;;;;;;;18.30;15.03;;;;;;;7.32;100.00;96895.44;5072763;28;20247;-92
2020/12/06 06:24:56;;;;;;;19.00;13.83;;;;;;;7.31;100.00;96893.78;5072891;28;20192;-92
2020/12/06 06:27:23;;;;;;;20.43;14.77;;;;;;;7.35;100.00;96894.38;5075225;28;20201;-91
2020/12/06 06:29:51;;;;;;;20.23;14.30;;;;;;;7.36;100.00;96893.41;5076602;28;20211;-93
2020/12/06 06:32:22;;;;;;;17.67;14.53;;;;;;;7.24;100.00;96889.16;5076319;28;20230;-91
2020/12/06 06:34:50;;;;;;;29.73;19.43;;;;;;;7.29;100.00;96895.69;5066707;28;20228;-92
2020/12/06 06:37:18;;;;;;;28.43;18.97;;;;;;;7.30;100.00;96901.72;5055259;28;20280;-92
2020/12/06 06:39:45;;;;;;;72.07;43.13;;;;;;;7.36;100.00;96898.63;5055983;28;20209;-92
2020/12/06 06:42:13;;;;;;;51.43;33.30;;;;;;;7.35;100.00;96903.03;5055847;28;20719;-92
2020/12/06 06:44:42;;;;;;;34.10;22.30;;;;;;;7.32;100.00;96900.66;5055600;28;20231;-91
2020/12/06 06:47:11;;;;;;;58.00;41.53;;;;;;;7.26;100.00;96902.94;5055442;28;20755;-93
2020/12/06 06:49:52;;;;;;;23.70;16.80;;;;;;;7.28;100.00;96901.88;5054486;28;20491;-93
2020/12/06 06:52:19;;;;;;;25.63;19.90;;;;;;;7.24;100.00;96910.06;5056270;28;20263;-92
2020/12/06 06:54:51;;;;;;;23.50;17.33;;;;;;;7.34;100.00;96913.59;5055189;28;20289;-94
2020/12/06 06:57:21;;;;;;;20.67;17.40;;;;;;;7.44;100.00;96906.69;5054793;28;20289;-91
2020/12/06 06:59:49;;;;;;;22.57;18.57;;;;;;;7.36;100.00;96911.72;5055080;28;20202;-92
2020/12/06 07:02:31;;;;;;;22.77;18.73;;;;;;;7.35;100.00;96908.28;5055556;28;20747;-93
2020/12/06 07:04:59;;;;;;;19.57;16.30;;;;;;;7.37;100.00;96908.13;5055361;28;20186;-90
2020/12/06 07:07:53;;;;;;;20.50;14.43;;;;;;;7.37;100.00;96914.19;5055593;28;20222;-91
2020/12/06 07:10:21;;;;;;;15.93;14.23;;;;;;;7.37;100.00;96908.97;5033411;28;20216;-92
2020/12/06 07:12:49;;;;;;;18.07;14.20;;;;;;;7.35;100.00;96910.06;5057581;28;20763;-92
2020/12/06 07:15:17;;;;;;;15.43;13.27;;;;;;;7.33;100.00;96912.78;5056909;28;20205;-92
2020/12/06 07:17:45;;;;;;;23.13;15.90;;;;;;;7.41;100.00;96913.94;5057327;28;20194;-91
2020/12/06 07:20:14;;;;;;;19.40;14.63;;;;;;;7.35;100.00;96910.06;5056403;28;20194;-91
2020/12/06 07:22:42;;;;;;;16.20;14.27;;;;;;;7.46;100.00;96911.81;5057512;28;20285;-92
2020/12/06 07:25:12;;;;;;;13.80;11.80;;;;;;;7.36;100.00;96922.16;5057470;28;20202;-91
2020/12/06 07:27:39;;;;;;;15.17;11.53;;;;;;;7.36;100.00;96915.16;5056740;28;20194;-91
2020/12/06 07:30:08;;;;;;;14.17;12.70;;;;;;;7.49;100.00;96901.09;5058319;28;20255;-91
2020/12/06 07:32:35;;;;;;;14.53;11.70;;;;;;;7.48;100.00;96905.50;5055686;28;20312;-91
2020/12/06 07:35:03;;;;;;;17.70;13.63;;;;;;;7.37;100.00;96903.72;5056973;28;20230;-93
2020/12/06 07:37:31;;;;;;;18.20;13.10;;;;;;;7.51;100.00;96907.84;5057419;28;20225;-91
2020/12/06 07:39:57;;;;;;;16.07;12.43;;;;;;;7.52;100.00;96921.78;5058212;28;20224;-91
2020/12/06 07:42:26;;;;;;;18.03;12.00;;;;;;;7.42;100.00;96913.84;5059363;28;20232;-92
2020/12/06 07:44:54;;;;;;;15.47;12.93;;;;;;;7.35;100.00;96921.34;5059934;28;20224;-91
2020/12/06 07:47:21;;;;;;;13.63;11.27;;;;;;;7.45;100.00;96913.59;5054129;28;20213;-93
2020/12/06 07:49:50;;;;;;;12.63;11.33;;;;;;;7.42;100.00;96913.84;5056455;28;20229;-92
2020/12/06 07:52:18;;;;;;;13.70;11.63;;;;;;;7.45;100.00;96916.22;5057787;28;20199;-92
2020/12/06 07:54:58;;;;;;;16.30;11.87;;;;;;;7.50;100.00;96913.22;5056104;28;20198;-92
2020/12/06 07:57:42;;;;;;;11.80;10.07;;;;;;;7.52;100.00;96913.94;5055620;28;20194;-93
2020/12/06 08:00:11;;;;;;;13.70;10.17;;;;;;;7.48;100.00;96915.13;5056781;28;20190;-93
2020/12/06 08:02:41;;;;;;;12.93;11.17;;;;;;;7.56;100.00;96912.72;5055826;28;20198;-93
2020/12/06 08:05:10;;;;;;;21.90;15.23;;;;;;;7.54;100.00;96920.69;5056102;28;20332;-93
2020/12/06 08:07:41;;;;;;;13.47;10.70;;;;;;;7.51;100.00;96917.50;5056567;28;20251;-92
2020/12/06 08:10:13;;;;;;;15.03;11.10;;;;;;;7.47;100.00;96918.69;5057412;28;20258;-92
2020/12/06 08:12:43;;;;;;;13.33;11.13;;;;;;;7.47;100.00;96921.31;5055707;28;20248;-93
2020/12/06 08:15:11;;;;;;;18.20;12.57;;;;;;;7.38;100.00;96910.66;5055468;28;20205;-93
2020/12/06 08:17:46;;;;;;;19.20;13.03;;;;;;;7.40;100.00;96907.88;5056135;28;20197;-93
2020/12/06 08:20:14;;;;;;;15.97;14.13;;;;;;;7.42;100.00;96915.63;5055872;28;20276;-92
2020/12/06 08:22:52;;;;;;;14.77;12.37;;;;;;;7.46;100.00;96912.63;5057191;28;20224;-93
2020/12/06 08:25:22;;;;;;;13.10;11.70;;;;;;;7.43;100.00;96912.06;5056638;28;20247;-92
2020/12/06 08:27:52;;;;;;;17.30;12.37;;;;;;;7.52;100.00;96916.56;5056299;28;20194;-94
2020/12/06 08:30:20;;;;;;;13.90;11.27;;;;;;;7.42;100.00;96916.47;5055741;28;20205;-94
2020/12/06 08:32:54;;;;;;;18.80;11.33;;;;;;;7.47;100.00;96918.69;5054851;28;20242;-92
2020/12/06 08:35:22;;;;;;;33.37;20.50;;;;;;;7.51;100.00;96915.69;5054455;28;20182;-91
2020/12/06 08:37:48;;;;;;;18.20;11.83;;;;;;;7.50;100.00;96911.44;5054146;28;20682;-92
2020/12/06 08:40:15;;;;;;;13.90;12.00;;;;;;;7.53;100.00;96911.19;5054074;28;20186;-93
2020/12/06 08:42:43;;;;;;;17.33;12.40;;;;;;;7.58;100.00;96903.78;5054181;28;20189;-93
2020/12/06 08:45:10;;;;;;;17.83;11.50;;;;;;;7.50;100.00;96905.38;5053806;28;20214;-92
2020/12/06 08:47:44;;;;;;;14.43;12.67;;;;;;;7.49;100.00;96904.53;5054287;28;20256;-93
2020/12/06 08:50:13;;;;;;;13.60;10.70;;;;;;;7.53;100.00;96899.91;5053356;28;20216;-91
2020/12/06 08:52:40;;;;;;;21.57;15.63;;;;;;;7.58;100.00;96897.72;5054071;28;20225;-91
2020/12/06 08:55:29;;;;;;;21.93;14.73;;;;;;;7.54;100.00;96893.69;5054689;28;20629;-92
2020/12/06 08:57:58;;;;;;;16.13;12.13;;;;;;;7.51;100.00;96896.56;5056927;28;20198;-91
2020/12/06 09:00:25;;;;;;;19.90;14.20;;;;;;;7.60;100.00;96898.44;5057091;28;20202;-92
2020/12/06 09:02:51;;;;;;;16.83;11.97;;;;;;;7.56;100.00;96892.63;5056752;28;20198;-94
2020/12/06 09:05:18;;;;;;;19.07;13.13;;;;;;;7.57;100.00;96883.00;5058728;28;20209;-92
2020/12/06 09:07:45;;;;;;;18.53;16.13;;;;;;;7.65;100.00;96877.94;5057310;28;20201;-93
2020/12/06 09:10:12;;;;;;;18.37;15.87;;;;;;;7.60;100.00;96869.66;5055789;28;20193;-93
2020/12/06 09:12:39;;;;;;;17.80;12.03;;;;;;;7.54;100.00;96872.78;5056806;28;20252;-92
2020/12/06 09:15:08;;;;;;;24.60;16.83;;;;;;;7.52;100.00;96874.69;5055205;28;20666;-92
2020/12/06 09:17:35;;;;;;;25.03;18.17;;;;;;;7.59;100.00;96866.22;5055033;28;20279;-93
2020/12/06 09:20:02;;;;;;;19.70;16.23;;;;;;;7.55;100.00;96863.97;5054607;28;20244;-92
2020/12/06 09:22:29;;;;;;;14.97;13.40;;;;;;;7.61;100.00;96869.53;5054924;28;20628;-93
2020/12/06 09:24:56;;;;;;;17.77;15.23;;;;;;;7.67;100.00;96859.53;5054508;28;20646;-91
2020/12/06 09:27:22;;;;;;;25.77;16.60;;;;;;;7.70;100.00;96854.88;5054981;28;20228;-92
2020/12/06 09:29:49;;;;;;;19.47;14.10;;;;;;;7.72;100.00;96852.94;5055625;28;20256;-95
2020/12/06 09:32:17;;;;;;;32.03;23.60;;;;;;;7.57;100.00;96855.03;5054682;28;20268;-93
2020/12/06 09:34:44;;;;;;;23.17;17.27;;;;;;;7.52;100.00;96857.22;5055588;28;20205;-93
2020/12/06 09:37:11;;;;;;;18.63;13.40;;;;;;;7.63;100.00;96848.50;5054682;28;20200;-92
2020/12/06 09:39:37;;;;;;;19.83;16.77;;;;;;;7.59;100.00;96839.25;5055248;28;20217;-92
2020/12/06 09:42:04;;;;;;;18.90;14.37;;;;;;;7.62;100.00;96844.22;5054383;28;20189;-92
2020/12/06 09:44:31;;;;;;;12.47;11.07;;;;;;;7.69;100.00;96832.28;5055463;28;20277;-92
2020/12/06 09:46:58;;;;;;;15.73;11.87;;;;;;;7.53;100.00;96835.31;5054663;28;20264;-92
2020/12/06 09:49:26;;;;;;;17.80;14.07;;;;;;;7.58;100.00;96834.94;5054836;28;20202;-93
2020/12/06 09:51:52;;;;;;;18.90;14.50;;;;;;;7.60;100.00;96830.44;5054548;28;20194;-92
2020/12/06 09:54:19;;;;;;;16.50;11.77;;;;;;;7.58;100.00;96832.31;5054132;28;20272;-91
2020/12/06 09:56:46;;;;;;;14.27;11.57;;;;;;;7.58;100.00;96820.06;5054476;28;20614;-92
2020/12/06 09:59:13;;;;;;;14.77;12.80;;;;;;;7.63;100.00;96820.53;5054227;28;20662;-92
2020/12/06 10:01:40;;;;;;;16.63;11.93;;;;;;;7.70;100.00;96825.28;5057516;28;20201;-93
2020/12/06 10:04:07;;;;;;;12.93;11.47;;;;;;;7.71;100.00;96826.91;5061706;28;20193;-92
2020/12/06 10:06:34;;;;;;;19.47;15.30;;;;;;;7.71;100.00;96827.75;5061150;28;20202;-92
2020/12/06 10:09:01;;;;;;;13.73;11.33;;;;;;;7.63;100.00;96822.31;5061136;28;20559;-93
2020/12/06 10:11:28;;;;;;;14.97;10.57;;;;;;;7.63;100.00;96817.91;5060744;28;20554;-91
2020/12/06 10:13:55;;;;;;;19.47;13.63;;;;;;;7.70;100.00;96818.25;5060365;28;20586;-93
2020/12/06 10:16:22;;;;;;;20.23;17.70;;;;;;;7.78;100.00;96818.44;5060177;28;20662;-92
2020/12/06 10:18:49;;;;;;;17.83;13.97;;;;;;;7.71;100.00;96813.84;5060106;28;20243;-92
2020/12/06 10:21:16;;;;;;;18.80;14.60;;;;;;;7.71;100.00;96816.47;5059819;28;20636;-93
2020/12/06 10:23:44;;;;;;;18.60;16.60;;;;;;;7.75;100.00;96802.97;5059444;28;20197;-93
2020/12/06 10:26:12;;;;;;;16.77;13.33;;;;;;;7.73;100.00;96811.94;5059767;28;20228;-92
2020/12/06 10:28:39;;;;;;;20.03;14.80;;;;;;;7.60;100.00;96806.88;5059540;28;20201;-93
2020/12/06 10:31:06;;;;;;;17.73;13.50;;;;;;;7.68;100.00;96809.69;5060014;28;20238;-93
2020/12/06 10:33:33;;;;;;;15.23;12.77;;;;;;;7.68;100.00;96804.44;5059618;28;20267;-93
2020/12/06 10:36:00;;;;;;;17.67;14.13;;;;;;;7.72;100.00;96792.75;5059698;28;20582;-91
2020/12/06 10:38:26;;;;;;;16.30;13.23;;;;;;;7.65;100.00;96802.09;5059480;28;20248;-91
2020/12/06 10:40:54;;;;;;;19.73;17.53;;;;;;;7.58;100.00;96799.16;5059545;28;20244;-94
2020/12/06 10:43:21;;;;;;;19.60;16.03;;;;;;;7.65;100.00;96793.41;5059363;28;20205;-92
2020/12/06 10:45:48;;;;;;;26.30;20.57;;;;;;;7.70;100.00;96794.69;5059404;28;20280;-93
2020/12/06 10:48:15;;;;;;;20.83;18.63;;;;;;;7.71;100.00;96793.72;5059502;28;20206;-93
2020/12/06 10:50:42;;;;;;;19.87;16.93;;;;;;;7.62;100.00;96787.50;5059301;28;20205;-91
2020/12/06 10:53:08;;;;;;;17.23;15.43;;;;;;;7.71;100.00;96779.81;5059808;28;20228;-92
2020/12/06 10:55:37;;;;;;;29.80;22.83;;;;;;;7.75;100.00;96779.44;5059421;28;20202;-92
2020/12/06 10:58:05;;;;;;;28.87;20.97;;;;;;;7.69;100.00;96774.72;5059089;28;20225;-92
2020/12/06 11:00:31;;;;;;;31.60;24.47;;;;;;;7.69;100.00;96781.72;5059298;28;20193;-92
2020/12/06 11:02:58;;;;;;;24.60;18.27;;;;;;;7.71;100.00;96779.81;5059164;28;20233;-92
2020/12/06 11:05:25;;;;;;;32.57;26.97;;;;;;;7.60;100.00;96785.97;5059218;28;20198;-90
2020/12/06 11:07:52;;;;;;;25.80;21.53;;;;;;;7.62;100.00;96778.81;5058928;28;20253;-93
2020/12/06 11:10:19;;;;;;;19.47;17.23;;;;;;;7.63;100.00;96777.84;5059370;28;20615;-92
2020/12/06 11:12:46;;;;;;;18.63;13.37;;;;;;;7.63;100.00;96783.09;5057019;28;20200;-92
2020/12/06 11:15:13;;;;;;;20.57;14.80;;;;;;;7.57;100.00;96770.50;5056162;28;20225;-91
2020/12/06 11:17:40;;;;;;;26.80;23.73;;;;;;;7.56;100.00;96761.00;5056176;28;20201;-92
2020/12/06 11:20:07;;;;;;;28.27;24.00;;;;;;;7.56;100.00;96758.41;5056168;28;20714;-92
2020/12/06 11:22:34;;;;;;;32.20;26.93;;;;;;;7.64;100.00;96761.19;5056544;28;20213;-92
2020/12/06 11:25:01;;;;;;;24.63;21.13;;;;;;;7.56;100.00;96766.25;5055867;28;20193;-91